sensor_id;sensor_type;location;lat;lon;timestamp;pressure;altitude;pressure_sealevel;temperature;humidity
7170;BME280;3626;42.656;23.312;2023-08-24T00:00:04;94698.84;;;21.76;100.00
7170;BME280;3626;42.656;23.312;2023-08-24T00:00:11;94699.88;;;21.75;100.00
7170;BME280;3626;42.656;23.312;2023-08-24T00:00:18;94692.00;;;21.75;100.00
7170;BME280;3626;42.656;23.312;2023-08-24T00:00:26;94699.88;;;21.75;100.00
7170;BME280;3626;42.656;23.312;2023-08-24T00:00:34;94700.88;;;21.74;100.00
7170;BME280;3626;42.656;23.312;2023-08-24T00:00:42;94697.47;;;21.74;100.00
7170;BME280;3626;42.656;23.312;2023-08-24T00:00:49;94699.28;;;21.73;100.00
7170;BME280;3626;42.656;23.312;2023-08-24T00:00:56;94699.28;;;21.73;100.00
7170;BME280;3626;42.656;23.312;2023-08-24T00:01:02;94701.91;;;21.73;100.00
7170;BME280;3626;42.656;23.312;2023-08-24T00:01:08;94695.09;;;21.72;100.00
7170;BME280;3626;42.656;23.312;2023-08-24T00:01:15;94696.91;;;21.71;100.00
7170;BME280;3626;42.656;23.312;2023-08-24T00:01:23;94695.28;;;21.70;100.00
7170;BME280;3626;42.656;23.312;2023-08-24T00:01:28;94699.75;;;21.70;100.00
7170;BME280;3626;42.656;23.312;2023-08-24T00:01:34;94696.34;;;21.69;100.00
7170;BME280;3626;42.656;23.312;2023-08-24T00:01:41;94697.91;;;21.70;100.00
7170;BME280;3626;42.656;23.312;2023-08-24T00:01:47;94697.91;;;21.70;100.00
7170;BME280;3626;42.656;23.312;2023-08-24T00:01:53;94695.53;;;21.69;100.00
7170;BME280;3626;42.656;23.312;2023-08-24T00:02:00;94695.53;;;21.69;100.00
7170;BME280;3626;42.656;23.312;2023-08-24T00:02:06;94697.38;;;21.68;100.00
7170;BME280;3626;42.656;23.312;2023-08-24T00:02:12;94694.75;;;21.68;100.00
7170;BME280;3626;42.656;23.312;2023-08-24T00:02:18;94695.53;;;21.69;100.00
7170;BME280;3626;42.656;23.312;2023-08-24T00:02:23;94698.16;;;21.69;100.00
7170;BME280;3626;42.656;23.312;2023-08-24T00:02:29;94700.78;;;21.69;100.00
7170;BME280;3626;42.656;23.312;2023-08-24T00:02:35;94698.16;;;21.69;100.00
7170;BME280;3626;42.656;23.312;2023-08-24T00:02:41;94697.13;;;21.70;100.00
7170;BME280;3626;42.656;23.312;2023-08-24T00:02:47;94690.28;;;21.69;100.00
7170;BME280;3626;42.656;23.312;2023-08-24T00:02:53;94695.53;;;21.69;100.00
7170;BME280;3626;42.656;23.312;2023-08-24T00:02:58;94695.53;;;21.69;100.00
7170;BME280;3626;42.656;23.312;2023-08-24T00:03:04;94700.78;;;21.69;100.00
7170;BME280;3626;42.656;23.312;2023-08-24T00:03:10;94693.94;;;21.68;100.00
7170;BME280;3626;42.656;23.312;2023-08-24T00:03:16;94707.63;;;21.70;100.00
7170;BME280;3626;42.656;23.312;2023-08-24T00:03:22;94703.41;;;21.69;100.00
7170;BME280;3626;42.656;23.312;2023-08-24T00:03:28;94691.88;;;21.70;100.00
7170;BME280;3626;42.656;23.312;2023-08-24T00:03:34;94695.53;;;21.69;100.00
7170;BME280;3626;42.656;23.312;2023-08-24T00:03:40;94698.16;;;21.69;100.00
7170;BME280;3626;42.656;23.312;2023-08-24T00:03:46;94700.00;;;21.68;100.00
7170;BME280;3626;42.656;23.312;2023-08-24T00:03:53;94700.78;;;21.69;100.00
7170;BME280;3626;42.656;23.312;2023-08-24T00:03:59;94695.53;;;21.69;100.00
7170;BME280;3626;42.656;23.312;2023-08-24T00:04:04;94700.78;;;21.69;100.00
7170;BME280;3626;42.656;23.312;2023-08-24T00:04:10;94694.75;;;21.68;100.00
7170;BME280;3626;42.656;23.312;2023-08-24T00:04:16;94700.00;;;21.68;100.00
7170;BME280;3626;42.656;23.312;2023-08-24T00:04:22;94696.56;;;21.68;100.00
7170;BME280;3626;42.656;23.312;2023-08-24T00:04:28;94698.16;;;21.69;100.00
7170;BME280;3626;42.656;23.312;2023-08-24T00:04:34;94703.41;;;21.69;100.00
7170;BME280;3626;42.656;23.312;2023-08-24T00:04:41;94697.38;;;21.68;100.00
7170;BME280;3626;42.656;23.312;2023-08-24T00:04:47;94703.41;;;21.69;100.00
7170;BME280;3626;42.656;23.312;2023-08-24T00:04:53;94696.56;;;21.68;100.00
7170;BME280;3626;42.656;23.312;2023-08-24T00:04:59;94695.78;;;21.67;100.00
7170;BME280;3626;42.656;23.312;2023-08-24T00:05:06;94696.56;;;21.68;100.00
7170;BME280;3626;42.656;23.312;2023-08-24T00:05:12;94698.41;;;21.67;100.00
7170;BME280;3626;42.656;23.312;2023-08-24T00:05:19;94696.81;;;21.66;100.00
7170;BME280;3626;42.656;23.312;2023-08-24T00:05:25;94695.19;;;21.65;100.00
7170;BME280;3626;42.656;23.312;2023-08-24T00:05:33;94702.88;;;21.67;100.00
7170;BME280;3626;42.656;23.312;2023-08-24T00:05:40;94699.44;;;21.66;100.00
7170;BME280;3626;42.656;23.312;2023-08-24T00:05:47;94700.25;;;21.67;100.00
7170;BME280;3626;42.656;23.312;2023-08-24T00:05:53;94700.47;;;21.65;100.00
7170;BME280;3626;42.656;23.312;2023-08-24T00:06:00;94702.06;;;21.66;100.00
7170;BME280;3626;42.656;23.312;2023-08-24T00:06:06;94696.81;;;21.66;100.00
7170;BME280;3626;42.656;23.312;2023-08-24T00:06:12;94702.88;;;21.67;100.00
7170;BME280;3626;42.656;23.312;2023-08-24T00:06:18;94698.63;;;21.66;100.00
7170;BME280;3626;42.656;23.312;2023-08-24T00:06:23;94702.06;;;21.66;100.00
7170;BME280;3626;42.656;23.312;2023-08-24T00:06:30;94700.47;;;21.65;100.00
7170;BME280;3626;42.656;23.312;2023-08-24T00:06:35;94694.41;;;21.65;100.00
7170;BME280;3626;42.656;23.312;2023-08-24T00:06:41;94697.03;;;21.65;100.00
7170;BME280;3626;42.656;23.312;2023-08-24T00:06:47;94698.88;;;21.64;100.00
7170;BME280;3626;42.656;23.312;2023-08-24T00:06:53;94697.03;;;21.65;100.00
7170;BME280;3626;42.656;23.312;2023-08-24T00:06:59;94700.69;;;21.64;100.00
7170;BME280;3626;42.656;23.312;2023-08-24T00:07:05;94707.00;;;21.63;100.00
7170;BME280;3626;42.656;23.312;2023-08-24T00:07:10;94694.88;;;21.62;100.00
7170;BME280;3626;42.656;23.312;2023-08-24T00:07:16;94703.78;;;21.61;100.00
7170;BME280;3626;42.656;23.312;2023-08-24T00:07:22;94694.31;;;21.60;100.00
7170;BME280;3626;42.656;23.312;2023-08-24T00:07:28;94694.31;;;21.60;100.00
7170;BME280;3626;42.656;23.312;2023-08-24T00:07:33;94696.16;;;21.59;100.00
7170;BME280;3626;42.656;23.312;2023-08-24T00:07:39;94698.78;;;21.59;100.00
7170;BME280;3626;42.656;23.312;2023-08-24T00:07:46;94696.16;;;21.59;100.00
7170;BME280;3626;42.656;23.312;2023-08-24T00:07:53;94692.72;;;21.59;100.00
7170;BME280;3626;42.656;23.312;2023-08-24T00:07:59;94700.59;;;21.59;100.00
7170;BME280;3626;42.656;23.312;2023-08-24T00:08:05;94695.56;;;21.57;100.00
7170;BME280;3626;42.656;23.312;2023-08-24T00:08:11;94690.09;;;21.59;100.00
7170;BME280;3626;42.656;23.312;2023-08-24T00:08:17;94696.34;;;21.58;100.00
7170;BME280;3626;42.656;23.312;2023-08-24T00:08:23;94697.97;;;21.59;100.00
7170;BME280;3626;42.656;23.312;2023-08-24T00:08:28;94699.81;;;21.58;100.00
7170;BME280;3626;42.656;23.312;2023-08-24T00:08:34;94692.72;;;21.59;100.00
7170;BME280;3626;42.656;23.312;2023-08-24T00:08:40;94695.34;;;21.59;100.00
7170;BME280;3626;42.656;23.312;2023-08-24T00:08:45;94697.97;;;21.59;100.00
7170;BME280;3626;42.656;23.312;2023-08-24T00:08:52;94697.97;;;21.59;100.00
7170;BME280;3626;42.656;23.312;2023-08-24T00:08:58;94691.69;;;21.60;100.00
7170;BME280;3626;42.656;23.312;2023-08-24T00:09:05;94703.22;;;21.59;100.00
7170;BME280;3626;42.656;23.312;2023-08-24T00:09:11;94688.47;;;21.58;100.00
7170;BME280;3626;42.656;23.312;2023-08-24T00:09:17;94698.97;;;21.58;100.00
7170;BME280;3626;42.656;23.312;2023-08-24T00:09:22;94700.81;;;21.57;100.00
7170;BME280;3626;42.656;23.312;2023-08-24T00:09:28;94698.19;;;21.57;100.00
7170;BME280;3626;42.656;23.312;2023-08-24T00:09:35;94698.97;;;21.58;100.00
7170;BME280;3626;42.656;23.312;2023-08-24T00:09:40;94697.41;;;21.57;100.00
7170;BME280;3626;42.656;23.312;2023-08-24T00:09:46;94694.78;;;21.57;100.00
7170;BME280;3626;42.656;23.312;2023-08-24T00:09:52;94698.97;;;21.58;100.00
7170;BME280;3626;42.656;23.312;2023-08-24T00:09:58;94691.34;;;21.56;100.00
7170;BME280;3626;42.656;23.312;2023-08-24T00:10:04;94692.16;;;21.57;100.00
7170;BME280;3626;42.656;23.312;2023-08-24T00:10:10;94695.56;;;21.57;100.00
7170;BME280;3626;42.656;23.312;2023-08-24T00:10:16;94698.97;;;21.58;100.00
7170;BME280;3626;42.656;23.312;2023-08-24T00:10:23;94698.19;;;21.57;100.00
7170;BME280;3626;42.656;23.312;2023-08-24T00:10:29;94696.34;;;21.58;100.00
7170;BME280;3626;42.656;23.312;2023-08-24T00:10:35;94698.97;;;21.58;100.00
7170;BME280;3626;42.656;23.312;2023-08-24T00:10:43;94700.03;;;21.57;100.00
7170;BME280;3626;42.656;23.312;2023-08-24T00:10:49;94698.19;;;21.57;100.00
7170;BME280;3626;42.656;23.312;2023-08-24T00:10:55;94692.16;;;21.57;100.00
7170;BME280;3626;42.656;23.312;2023-08-24T00:11:00;94696.34;;;21.58;100.00
7170;BME280;3626;42.656;23.312;2023-08-24T00:11:07;94697.41;;;21.57;100.00
7170;BME280;3626;42.656;23.312;2023-08-24T00:11:13;94692.16;;;21.57;100.00
7170;BME280;3626;42.656;23.312;2023-08-24T00:11:21;94696.59;;;21.56;100.00
7170;BME280;3626;42.656;23.312;2023-08-24T00:11:26;94695.81;;;21.56;100.00
7170;BME280;3626;42.656;23.312;2023-08-24T00:11:32;94701.06;;;21.56;100.00
7170;BME280;3626;42.656;23.312;2023-08-24T00:11:39;94696.59;;;21.56;100.00
7170;BME280;3626;42.656;23.312;2023-08-24T00:11:45;94693.19;;;21.56;100.00
7170;BME280;3626;42.656;23.312;2023-08-24T00:11:51;94695.00;;;21.55;100.00
7170;BME280;3626;42.656;23.312;2023-08-24T00:11:57;94695.81;;;21.56;100.00
7170;BME280;3626;42.656;23.312;2023-08-24T00:12:03;94684.97;;;21.52;100.00
7170;BME280;3626;42.656;23.312;2023-08-24T00:12:09;94694.44;;;21.53;100.00
7170;BME280;3626;42.656;23.312;2023-08-24T00:12:15;94698.88;;;21.53;100.00
7170;BME280;3626;42.656;23.312;2023-08-24T00:12:21;94697.31;;;21.52;100.00
7170;BME280;3626;42.656;23.312;2023-08-24T00:12:27;94693.88;;;21.51;100.00
7170;BME280;3626;42.656;23.312;2023-08-24T00:12:33;94692.06;;;21.52;100.00
7170;BME280;3626;42.656;23.312;2023-08-24T00:12:39;94708.84;;;21.51;100.00
7170;BME280;3626;42.656;23.312;2023-08-24T00:12:44;94699.94;;;21.52;100.00
7170;BME280;3626;42.656;23.312;2023-08-24T00:12:50;94699.94;;;21.52;100.00
7170;BME280;3626;42.656;23.312;2023-08-24T00:12:56;94707.00;;;21.51;100.00
7170;BME280;3626;42.656;23.312;2023-08-24T00:13:02;94699.94;;;21.52;100.00
7170;BME280;3626;42.656;23.312;2023-08-24T00:13:09;94699.13;;;21.51;100.00
7170;BME280;3626;42.656;23.312;2023-08-24T00:13:15;94697.31;;;21.52;100.00
7170;BME280;3626;42.656;23.312;2023-08-24T00:13:21;94694.91;;;21.50;100.00
7170;BME280;3626;42.656;23.312;2023-08-24T00:13:26;94697.53;;;21.50;100.00
7170;BME280;3626;42.656;23.312;2023-08-24T00:13:32;94695.72;;;21.51;100.00
7170;BME280;3626;42.656;23.312;2023-08-24T00:13:38;94697.53;;;21.50;100.00
7170;BME280;3626;42.656;23.312;2023-08-24T00:13:44;94697.53;;;21.50;100.00
7170;BME280;3626;42.656;23.312;2023-08-24T00:13:54;94694.13;;;21.50;100.00
7170;BME280;3626;42.656;23.312;2023-08-24T00:14:00;94696.75;;;21.50;100.00
7170;BME280;3626;42.656;23.312;2023-08-24T00:14:05;94699.38;;;21.50;100.00
7170;BME280;3626;42.656;23.312;2023-08-24T00:14:12;94705.63;;;21.49;100.00
7170;BME280;3626;42.656;23.312;2023-08-24T00:14:17;94702.22;;;21.48;100.00
7170;BME280;3626;42.656;23.312;2023-08-24T00:14:23;94693.53;;;21.48;100.00
7170;BME280;3626;42.656;23.312;2023-08-24T00:14:29;94695.94;;;21.49;100.00
7170;BME280;3626;42.656;23.312;2023-08-24T00:14:35;94696.97;;;21.48;100.00
7170;BME280;3626;42.656;23.312;2023-08-24T00:14:40;94698.56;;;21.49;100.00
7170;BME280;3626;42.656;23.312;2023-08-24T00:14:46;94702.22;;;21.48;100.00
7170;BME280;3626;42.656;23.312;2023-08-24T00:14:52;94694.34;;;21.48;100.00
7170;BME280;3626;42.656;23.312;2023-08-24T00:14:58;94703.00;;;21.49;100.00
7170;BME280;3626;42.656;23.312;2023-08-24T00:15:04;94697.75;;;21.49;100.00
7170;BME280;3626;42.656;23.312;2023-08-24T00:15:10;94692.50;;;21.49;100.00
7170;BME280;3626;42.656;23.312;2023-08-24T00:15:17;94702.22;;;21.48;100.00
7170;BME280;3626;42.656;23.312;2023-08-24T00:15:23;94701.41;;;21.48;100.00
7170;BME280;3626;42.656;23.312;2023-08-24T00:15:29;94701.41;;;21.48;100.00
7170;BME280;3626;42.656;23.312;2023-08-24T00:15:35;94699.81;;;21.46;100.00
7170;BME280;3626;42.656;23.312;2023-08-24T00:15:41;94699.81;;;21.46;100.00
7170;BME280;3626;42.656;23.312;2023-08-24T00:15:47;94699.25;;;21.44;100.00
7170;BME280;3626;42.656;23.312;2023-08-24T00:15:53;94700.03;;;21.45;100.00
7170;BME280;3626;42.656;23.312;2023-08-24T00:15:59;94700.03;;;21.45;100.00
7170;BME280;3626;42.656;23.312;2023-08-24T00:16:05;94697.41;;;21.45;100.00
7170;BME280;3626;42.656;23.312;2023-08-24T00:16:12;94688.75;;;21.44;100.00
7170;BME280;3626;42.656;23.312;2023-08-24T00:16:18;94703.69;;;21.44;100.00
7170;BME280;3626;42.656;23.312;2023-08-24T00:16:24;94703.69;;;21.44;100.00
7170;BME280;3626;42.656;23.312;2023-08-24T00:16:30;94695.03;;;21.43;100.00
7170;BME280;3626;42.656;23.312;2023-08-24T00:16:36;94699.50;;;21.43;100.00
7170;BME280;3626;42.656;23.312;2023-08-24T00:16:42;94699.50;;;21.43;100.00
7170;BME280;3626;42.656;23.312;2023-08-24T00:16:48;94700.28;;;21.43;100.00
7170;BME280;3626;42.656;23.312;2023-08-24T00:16:54;94702.13;;;21.43;100.00
7170;BME280;3626;42.656;23.312;2023-08-24T00:17:00;94699.50;;;21.43;100.00
7170;BME280;3626;42.656;23.312;2023-08-24T00:17:06;94701.31;;;21.42;100.00
7170;BME280;3626;42.656;23.312;2023-08-24T00:17:11;94697.09;;;21.41;100.00
7170;BME280;3626;42.656;23.312;2023-08-24T00:17:17;94697.91;;;21.42;100.00
7170;BME280;3626;42.656;23.312;2023-08-24T00:17:23;94702.13;;;21.43;100.00
7170;BME280;3626;42.656;23.312;2023-08-24T00:17:30;94699.72;;;21.41;100.00
7170;BME280;3626;42.656;23.312;2023-08-24T00:17:36;94702.34;;;21.41;100.00
7170;BME280;3626;42.656;23.312;2023-08-24T00:17:42;94701.31;;;21.42;100.00
7170;BME280;3626;42.656;23.312;2023-08-24T00:17:48;94698.69;;;21.42;100.00
7170;BME280;3626;42.656;23.312;2023-08-24T00:17:55;94700.75;;;21.40;100.00
7170;BME280;3626;42.656;23.312;2023-08-24T00:18:00;94693.69;;;21.41;100.00
7170;BME280;3626;42.656;23.312;2023-08-24T00:18:07;94697.31;;;21.40;100.00
7170;BME280;3626;42.656;23.312;2023-08-24T00:18:12;94695.47;;;21.40;100.00
7170;BME280;3626;42.656;23.312;2023-08-24T00:18:19;94696.53;;;21.39;100.00
7170;BME280;3626;42.656;23.312;2023-08-24T00:18:27;94699.94;;;21.40;100.00
7170;BME280;3626;42.656;23.312;2023-08-24T00:18:32;94692.06;;;21.40;100.00
7170;BME280;3626;42.656;23.312;2023-08-24T00:18:38;94702.56;;;21.40;100.00
7170;BME280;3626;42.656;23.312;2023-08-24T00:18:44;94695.47;;;21.40;100.00
7170;BME280;3626;42.656;23.312;2023-08-24T00:18:50;94692.84;;;21.40;100.00
7170;BME280;3626;42.656;23.312;2023-08-24T00:18:57;94692.06;;;21.40;100.00
7170;BME280;3626;42.656;23.312;2023-08-24T00:19:02;94695.47;;;21.40;100.00
7170;BME280;3626;42.656;23.312;2023-08-24T00:19:08;94694.69;;;21.40;100.00
7170;BME280;3626;42.656;23.312;2023-08-24T00:19:14;94696.53;;;21.39;100.00
7170;BME280;3626;42.656;23.312;2023-08-24T00:19:20;94692.31;;;21.38;100.00
7170;BME280;3626;42.656;23.312;2023-08-24T00:19:25;94692.31;;;21.38;100.00
7170;BME280;3626;42.656;23.312;2023-08-24T00:19:31;94700.19;;;21.38;100.00
7170;BME280;3626;42.656;23.312;2023-08-24T00:19:37;94699.38;;;21.38;100.00
7170;BME280;3626;42.656;23.312;2023-08-24T00:19:43;94688.88;;;21.38;100.00
7170;BME280;3626;42.656;23.312;2023-08-24T00:19:48;94689.69;;;21.38;100.00
7170;BME280;3626;42.656;23.312;2023-08-24T00:19:55;94688.88;;;21.38;100.00
7170;BME280;3626;42.656;23.312;2023-08-24T00:20:00;94688.88;;;21.38;100.00
7170;BME280;3626;42.656;23.312;2023-08-24T00:20:10;94696.75;;;21.38;100.00
7170;BME280;3626;42.656;23.312;2023-08-24T00:20:16;94690.72;;;21.37;100.00
7170;BME280;3626;42.656;23.312;2023-08-24T00:20:22;94684.44;;;21.38;100.00
7170;BME280;3626;42.656;23.312;2023-08-24T00:20:28;94687.31;;;21.37;100.00
7170;BME280;3626;42.656;23.312;2023-08-24T00:20:35;94689.09;;;21.36;100.00
7170;BME280;3626;42.656;23.312;2023-08-24T00:20:42;94689.09;;;21.36;100.00
7170;BME280;3626;42.656;23.312;2023-08-24T00:20:48;94692.75;;;21.35;100.00
7170;BME280;3626;42.656;23.312;2023-08-24T00:20:54;94691.97;;;21.35;100.00
7170;BME280;3626;42.656;23.312;2023-08-24T00:20:59;94689.34;;;21.35;100.00
7170;BME280;3626;42.656;23.312;2023-08-24T00:21:05;94691.97;;;21.35;100.00
7170;BME280;3626;42.656;23.312;2023-08-24T00:21:13;94696.44;;;21.34;100.00
7170;BME280;3626;42.656;23.312;2023-08-24T00:21:22;94690.13;;;21.35;100.00
7170;BME280;3626;42.656;23.312;2023-08-24T00:21:28;94689.34;;;21.35;100.00
7170;BME280;3626;42.656;23.312;2023-08-24T00:21:34;94696.44;;;21.34;100.00
7170;BME280;3626;42.656;23.312;2023-08-24T00:21:40;94691.19;;;21.34;100.00
7170;BME280;3626;42.656;23.312;2023-08-24T00:21:45;94688.56;;;21.34;100.00
7170;BME280;3626;42.656;23.312;2023-08-24T00:21:51;94693.81;;;21.34;100.00
7170;BME280;3626;42.656;23.312;2023-08-24T00:21:57;94692.22;;;21.33;100.00
7170;BME280;3626;42.656;23.312;2023-08-24T00:22:03;94687.75;;;21.34;100.00
7170;BME280;3626;42.656;23.312;2023-08-24T00:22:09;94697.47;;;21.33;100.00
7170;BME280;3626;42.656;23.312;2023-08-24T00:22:15;94692.22;;;21.33;100.00
7170;BME280;3626;42.656;23.312;2023-08-24T00:22:20;94690.38;;;21.34;100.00
7170;BME280;3626;42.656;23.312;2023-08-24T00:22:26;94686.16;;;21.33;100.00
7170;BME280;3626;42.656;23.312;2023-08-24T00:22:32;94686.16;;;21.33;100.00
7170;BME280;3626;42.656;23.312;2023-08-24T00:22:38;94685.34;;;21.32;100.00
7170;BME280;3626;42.656;23.312;2023-08-24T00:22:45;94686.34;;;21.31;100.00
7170;BME280;3626;42.656;23.312;2023-08-24T00:22:51;94693.44;;;21.31;100.00
7170;BME280;3626;42.656;23.312;2023-08-24T00:22:56;94687.16;;;21.32;100.00
7170;BME280;3626;42.656;23.312;2023-08-24T00:23:03;94688.19;;;21.31;100.00
7170;BME280;3626;42.656;23.312;2023-08-24T00:23:09;94688.97;;;21.31;100.00
7170;BME280;3626;42.656;23.312;2023-08-24T00:23:14;94687.38;;;21.30;100.00
7170;BME280;3626;42.656;23.312;2023-08-24T00:23:20;94688.19;;;21.31;100.00
7170;BME280;3626;42.656;23.312;2023-08-24T00:23:26;94687.38;;;21.30;100.00
7170;BME280;3626;42.656;23.312;2023-08-24T00:23:32;94686.59;;;21.30;100.00
7170;BME280;3626;42.656;23.312;2023-08-24T00:23:37;94691.03;;;21.29;100.00
7170;BME280;3626;42.656;23.312;2023-08-24T00:23:44;94686.59;;;21.30;100.00
7170;BME280;3626;42.656;23.312;2023-08-24T00:23:49;94687.63;;;21.29;100.00
7170;BME280;3626;42.656;23.312;2023-08-24T00:23:55;94690.00;;;21.30;100.00
7170;BME280;3626;42.656;23.312;2023-08-24T00:24:01;94685.78;;;21.29;100.00
7170;BME280;3626;42.656;23.312;2023-08-24T00:24:07;94688.41;;;21.29;100.00
7170;BME280;3626;42.656;23.312;2023-08-24T00:24:12;94688.41;;;21.29;100.00
7170;BME280;3626;42.656;23.312;2023-08-24T00:24:18;94685.78;;;21.29;100.00
7170;BME280;3626;42.656;23.312;2023-08-24T00:24:25;94688.41;;;21.29;100.00
7170;BME280;3626;42.656;23.312;2023-08-24T00:24:31;94688.41;;;21.29;100.00
7170;BME280;3626;42.656;23.312;2023-08-24T00:24:37;94685.00;;;21.29;100.00
7170;BME280;3626;42.656;23.312;2023-08-24T00:24:43;94685.78;;;21.29;100.00
7170;BME280;3626;42.656;23.312;2023-08-24T00:24:49;94685.78;;;21.29;100.00
7170;BME280;3626;42.656;23.312;2023-08-24T00:24:55;94685.78;;;21.29;100.00
7170;BME280;3626;42.656;23.312;2023-08-24T00:25:00;94687.63;;;21.29;100.00
7170;BME280;3626;42.656;23.312;2023-08-24T00:25:07;94682.38;;;21.29;100.00
7170;BME280;3626;42.656;23.312;2023-08-24T00:25:13;94692.63;;;21.30;100.00
7170;BME280;3626;42.656;23.312;2023-08-24T00:25:19;94691.03;;;21.29;100.00
7170;BME280;3626;42.656;23.312;2023-08-24T00:25:25;94685.78;;;21.29;100.00
7170;BME280;3626;42.656;23.312;2023-08-24T00:25:31;94680.75;;;21.28;100.00
7170;BME280;3626;42.656;23.312;2023-08-24T00:25:37;94685.78;;;21.29;100.00
7170;BME280;3626;42.656;23.312;2023-08-24T00:25:42;94689.44;;;21.28;100.00
7170;BME280;3626;42.656;23.312;2023-08-24T00:25:48;94685.00;;;21.29;100.00
7170;BME280;3626;42.656;23.312;2023-08-24T00:25:54;94682.38;;;21.29;100.00
7170;BME280;3626;42.656;23.312;2023-08-24T00:25:59;94692.06;;;21.28;100.00
7170;BME280;3626;42.656;23.312;2023-08-24T00:26:05;94686.81;;;21.28;100.00
7170;BME280;3626;42.656;23.312;2023-08-24T00:26:11;94685.00;;;21.29;100.00
7170;BME280;3626;42.656;23.312;2023-08-24T00:26:18;94685.00;;;21.29;100.00
7170;BME280;3626;42.656;23.312;2023-08-24T00:26:23;94685.00;;;21.29;100.00
7170;BME280;3626;42.656;23.312;2023-08-24T00:26:30;94689.44;;;21.28;100.00
7170;BME280;3626;42.656;23.312;2023-08-24T00:26:36;94691.03;;;21.29;100.00
7170;BME280;3626;42.656;23.312;2023-08-24T00:26:43;94687.63;;;21.29;100.00
7170;BME280;3626;42.656;23.312;2023-08-24T00:26:48;94687.63;;;21.29;100.00
7170;BME280;3626;42.656;23.312;2023-08-24T00:26:55;94681.56;;;21.28;100.00
7170;BME280;3626;42.656;23.312;2023-08-24T00:27:01;94693.66;;;21.29;100.00
7170;BME280;3626;42.656;23.312;2023-08-24T00:27:06;94689.44;;;21.28;100.00
7170;BME280;3626;42.656;23.312;2023-08-24T00:27:12;94686.81;;;21.28;100.00
7170;BME280;3626;42.656;23.312;2023-08-24T00:27:19;94683.38;;;21.28;100.00
7170;BME280;3626;42.656;23.312;2023-08-24T00:27:25;94688.63;;;21.28;100.00
7170;BME280;3626;42.656;23.312;2023-08-24T00:27:30;94682.59;;;21.27;100.00
7170;BME280;3626;42.656;23.312;2023-08-24T00:27:36;94686.00;;;21.28;100.00
7170;BME280;3626;42.656;23.312;2023-08-24T00:27:42;94686.00;;;21.28;100.00
7170;BME280;3626;42.656;23.312;2023-08-24T00:27:48;94690.47;;;21.27;100.00
7170;BME280;3626;42.656;23.312;2023-08-24T00:27:54;94689.66;;;21.27;100.00
7170;BME280;3626;42.656;23.312;2023-08-24T00:28:00;94688.88;;;21.26;100.00
7170;BME280;3626;42.656;23.312;2023-08-24T00:28:07;94686.25;;;21.26;100.00
7170;BME280;3626;42.656;23.312;2023-08-24T00:28:12;94690.69;;;21.26;100.00
7170;BME280;3626;42.656;23.312;2023-08-24T00:28:18;94687.28;;;21.25;100.00
7170;BME280;3626;42.656;23.312;2023-08-24T00:28:25;94683.88;;;21.25;100.00
7170;BME280;3626;42.656;23.312;2023-08-24T00:28:31;94685.44;;;21.26;100.00
7170;BME280;3626;42.656;23.312;2023-08-24T00:28:36;94684.66;;;21.25;100.00
7170;BME280;3626;42.656;23.312;2023-08-24T00:28:42;94685.69;;;21.24;100.00
7170;BME280;3626;42.656;23.312;2023-08-24T00:28:48;94687.50;;;21.23;100.00
7170;BME280;3626;42.656;23.312;2023-08-24T00:28:54;94693.78;;;21.22;100.00
7170;BME280;3626;42.656;23.312;2023-08-24T00:29:00;94686.69;;;21.23;100.00
7170;BME280;3626;42.656;23.312;2023-08-24T00:29:05;94681.44;;;21.23;100.00
7170;BME280;3626;42.656;23.312;2023-08-24T00:29:11;94689.31;;;21.23;100.00
7170;BME280;3626;42.656;23.312;2023-08-24T00:29:17;94679.88;;;21.22;100.00
7170;BME280;3626;42.656;23.312;2023-08-24T00:29:23;94695.59;;;21.22;100.00
7170;BME280;3626;42.656;23.312;2023-08-24T00:29:28;94686.94;;;21.21;100.00
7170;BME280;3626;42.656;23.312;2023-08-24T00:29:34;94690.34;;;21.22;100.00
7170;BME280;3626;42.656;23.312;2023-08-24T00:29:40;94692.97;;;21.22;100.00
7170;BME280;3626;42.656;23.312;2023-08-24T00:29:46;94688.53;;;21.22;100.00
7170;BME280;3626;42.656;23.312;2023-08-24T00:29:53;94683.53;;;21.21;100.00
7170;BME280;3626;42.656;23.312;2023-08-24T00:29:59;94687.72;;;21.22;100.00
7170;BME280;3626;42.656;23.312;2023-08-24T00:30:06;94685.13;;;21.22;100.00
7170;BME280;3626;42.656;23.312;2023-08-24T00:30:12;94688.78;;;21.21;100.00
7170;BME280;3626;42.656;23.312;2023-08-24T00:30:18;94685.13;;;21.22;100.00
7170;BME280;3626;42.656;23.312;2023-08-24T00:30:24;94690.34;;;21.22;100.00
7170;BME280;3626;42.656;23.312;2023-08-24T00:30:30;94688.78;;;21.21;100.00
7170;BME280;3626;42.656;23.312;2023-08-24T00:30:36;94683.53;;;21.21;100.00
7170;BME280;3626;42.656;23.312;2023-08-24T00:30:42;94687.72;;;21.22;100.00
7170;BME280;3626;42.656;23.312;2023-08-24T00:30:48;94685.13;;;21.22;100.00
7170;BME280;3626;42.656;23.312;2023-08-24T00:30:53;94690.34;;;21.22;100.00
7170;BME280;3626;42.656;23.312;2023-08-24T00:30:59;94690.34;;;21.22;100.00
7170;BME280;3626;42.656;23.312;2023-08-24T00:31:05;94685.91;;;21.22;100.00
7170;BME280;3626;42.656;23.312;2023-08-24T00:31:11;94687.72;;;21.22;100.00
7170;BME280;3626;42.656;23.312;2023-08-24T00:31:17;94685.91;;;21.22;100.00
7170;BME280;3626;42.656;23.312;2023-08-24T00:31:24;94687.72;;;21.22;100.00
7170;BME280;3626;42.656;23.312;2023-08-24T00:31:29;94688.53;;;21.22;100.00
7170;BME280;3626;42.656;23.312;2023-08-24T00:31:35;94685.13;;;21.22;100.00
7170;BME280;3626;42.656;23.312;2023-08-24T00:31:41;94687.72;;;21.22;100.00
7170;BME280;3626;42.656;23.312;2023-08-24T00:31:47;94687.72;;;21.22;100.00
7170;BME280;3626;42.656;23.312;2023-08-24T00:31:53;94686.16;;;21.21;100.00
7170;BME280;3626;42.656;23.312;2023-08-24T00:31:58;94691.16;;;21.22;100.00
7170;BME280;3626;42.656;23.312;2023-08-24T00:32:04;94684.31;;;21.21;100.00
7170;BME280;3626;42.656;23.312;2023-08-24T00:32:10;94686.94;;;21.21;100.00
7170;BME280;3626;42.656;23.312;2023-08-24T00:32:16;94687.72;;;21.22;100.00